sensor_id;sensor_type;location;lat;lon;timestamp;P1;durP1;ratioP1;P2;durP2;ratioP2
53309;SDS011;39197;53.200;5.792;2024-01-30T00:01:40;25.70;;;22.20;;
53309;SDS011;39197;53.200;5.792;2024-01-30T00:04:05;27.27;;;23.88;;
53309;SDS011;39197;53.200;5.792;2024-01-30T00:06:31;31.42;;;22.65;;
53309;SDS011;39197;53.200;5.792;2024-01-30T00:08:56;30.02;;;23.48;;
53309;SDS011;39197;53.200;5.792;2024-01-30T00:11:22;26.10;;;22.95;;
53309;SDS011;39197;53.200;5.792;2024-01-30T00:13:50;29.90;;;24.35;;
53309;SDS011;39197;53.200;5.792;2024-01-30T00:16:23;27.95;;;21.30;;
53309;SDS011;39197;53.200;5.792;2024-01-30T00:18:49;27.67;;;22.45;;
53309;SDS011;39197;53.200;5.792;2024-01-30T00:21:19;27.05;;;19.55;;
53309;SDS011;39197;53.200;5.792;2024-01-30T00:23:45;34.72;;;26.88;;
53309;SDS011;39197;53.200;5.792;2024-01-30T00:26:11;27.85;;;19.95;;
53309;SDS011;39197;53.200;5.792;2024-01-30T00:28:37;27.85;;;24.33;;
53309;SDS011;39197;53.200;5.792;2024-01-30T00:31:03;30.33;;;24.25;;
53309;SDS011;39197;53.200;5.792;2024-01-30T00:33:29;30.55;;;24.33;;
53309;SDS011;39197;53.200;5.792;2024-01-30T00:35:55;28.65;;;23.58;;
53309;SDS011;39197;53.200;5.792;2024-01-30T00:38:21;32.95;;;24.65;;
53309;SDS011;39197;53.200;5.792;2024-01-30T00:40:46;29.27;;;23.58;;
53309;SDS011;39197;53.200;5.792;2024-01-30T00:43:12;31.75;;;24.90;;
53309;SDS011;39197;53.200;5.792;2024-01-30T00:45:38;29.50;;;23.92;;
53309;SDS011;39197;53.200;5.792;2024-01-30T00:48:03;34.08;;;23.35;;
53309;SDS011;39197;53.200;5.792;2024-01-30T00:50:29;23.10;;;18.63;;
53309;SDS011;39197;53.200;5.792;2024-01-30T00:52:55;30.63;;;25.38;;
53309;SDS011;39197;53.200;5.792;2024-01-30T00:55:20;29.15;;;24.27;;
53309;SDS011;39197;53.200;5.792;2024-01-30T00:57:46;32.85;;;24.85;;
53309;SDS011;39197;53.200;5.792;2024-01-30T01:00:12;28.00;;;24.45;;
53309;SDS011;39197;53.200;5.792;2024-01-30T01:02:41;31.10;;;25.08;;
53309;SDS011;39197;53.200;5.792;2024-01-30T01:05:06;32.47;;;25.85;;
53309;SDS011;39197;53.200;5.792;2024-01-30T01:07:32;30.65;;;26.10;;
53309;SDS011;39197;53.200;5.792;2024-01-30T01:09:57;32.25;;;25.50;;
53309;SDS011;39197;53.200;5.792;2024-01-30T01:12:23;32.40;;;23.48;;
53309;SDS011;39197;53.200;5.792;2024-01-30T01:14:48;31.48;;;24.38;;
53309;SDS011;39197;53.200;5.792;2024-01-30T01:17:14;31.15;;;26.52;;
53309;SDS011;39197;53.200;5.792;2024-01-30T01:19:40;31.70;;;25.98;;
53309;SDS011;39197;53.200;5.792;2024-01-30T01:22:05;33.13;;;27.58;;
53309;SDS011;39197;53.200;5.792;2024-01-30T01:24:31;28.27;;;22.20;;
53309;SDS011;39197;53.200;5.792;2024-01-30T01:26:58;35.83;;;25.48;;
53309;SDS011;39197;53.200;5.792;2024-01-30T01:29:24;28.83;;;22.38;;
53309;SDS011;39197;53.200;5.792;2024-01-30T01:31:57;28.73;;;25.00;;
53309;SDS011;39197;53.200;5.792;2024-01-30T01:34:23;35.53;;;28.52;;
53309;SDS011;39197;53.200;5.792;2024-01-30T01:36:49;32.15;;;27.63;;
53309;SDS011;39197;53.200;5.792;2024-01-30T01:39:15;34.92;;;28.27;;
53309;SDS011;39197;53.200;5.792;2024-01-30T01:41:41;32.13;;;26.60;;
53309;SDS011;39197;53.200;5.792;2024-01-30T01:44:07;32.83;;;26.38;;
53309;SDS011;39197;53.200;5.792;2024-01-30T01:46:33;33.58;;;26.25;;
53309;SDS011;39197;53.200;5.792;2024-01-30T01:49:00;30.55;;;25.35;;
53309;SDS011;39197;53.200;5.792;2024-01-30T01:51:28;36.38;;;25.55;;
53309;SDS011;39197;53.200;5.792;2024-01-30T01:53:56;33.25;;;25.67;;
53309;SDS011;39197;53.200;5.792;2024-01-30T01:56:24;30.75;;;24.85;;
53309;SDS011;39197;53.200;5.792;2024-01-30T01:58:50;29.45;;;24.50;;
53309;SDS011;39197;53.200;5.792;2024-01-30T02:01:19;32.53;;;26.13;;
53309;SDS011;39197;53.200;5.792;2024-01-30T02:03:46;30.63;;;25.05;;
53309;SDS011;39197;53.200;5.792;2024-01-30T02:06:13;32.13;;;23.73;;
53309;SDS011;39197;53.200;5.792;2024-01-30T02:08:39;30.25;;;24.35;;
53309;SDS011;39197;53.200;5.792;2024-01-30T02:11:05;38.42;;;26.30;;
53309;SDS011;39197;53.200;5.792;2024-01-30T02:13:31;31.80;;;23.90;;
53309;SDS011;39197;53.200;5.792;2024-01-30T02:15:56;31.75;;;26.00;;
53309;SDS011;39197;53.200;5.792;2024-01-30T02:18:22;26.85;;;22.65;;
53309;SDS011;39197;53.200;5.792;2024-01-30T02:20:48;28.85;;;23.77;;
53309;SDS011;39197;53.200;5.792;2024-01-30T02:23:15;30.55;;;25.67;;
53309;SDS011;39197;53.200;5.792;2024-01-30T02:25:42;29.85;;;22.30;;
53309;SDS011;39197;53.200;5.792;2024-01-30T02:28:14;25.05;;;20.30;;
53309;SDS011;39197;53.200;5.792;2024-01-30T02:30:40;28.83;;;25.17;;
53309;SDS011;39197;53.200;5.792;2024-01-30T02:33:07;29.85;;;23.50;;
53309;SDS011;39197;53.200;5.792;2024-01-30T02:35:33;28.60;;;25.10;;
53309;SDS011;39197;53.200;5.792;2024-01-30T02:37:59;32.10;;;23.80;;
53309;SDS011;39197;53.200;5.792;2024-01-30T02:40:25;30.25;;;25.48;;
53309;SDS011;39197;53.200;5.792;2024-01-30T02:42:50;23.50;;;16.98;;
53309;SDS011;39197;53.200;5.792;2024-01-30T02:45:16;30.33;;;25.98;;
53309;SDS011;39197;53.200;5.792;2024-01-30T02:47:42;27.58;;;23.80;;
53309;SDS011;39197;53.200;5.792;2024-01-30T02:50:07;27.08;;;23.10;;
53309;SDS011;39197;53.200;5.792;2024-01-30T02:52:33;27.17;;;21.83;;
53309;SDS011;39197;53.200;5.792;2024-01-30T02:54:59;29.98;;;24.52;;
53309;SDS011;39197;53.200;5.792;2024-01-30T02:57:25;29.90;;;24.20;;
53309;SDS011;39197;53.200;5.792;2024-01-30T02:59:50;30.45;;;21.90;;
53309;SDS011;39197;53.200;5.792;2024-01-30T03:02:16;30.17;;;24.92;;
53309;SDS011;39197;53.200;5.792;2024-01-30T03:04:42;30.92;;;24.33;;
53309;SDS011;39197;53.200;5.792;2024-01-30T03:07:08;29.70;;;23.65;;
53309;SDS011;39197;53.200;5.792;2024-01-30T03:09:33;28.83;;;21.52;;
53309;SDS011;39197;53.200;5.792;2024-01-30T03:11:59;25.83;;;21.33;;
53309;SDS011;39197;53.200;5.792;2024-01-30T03:14:24;26.63;;;23.55;;
53309;SDS011;39197;53.200;5.792;2024-01-30T03:16:50;29.35;;;23.75;;
53309;SDS011;39197;53.200;5.792;2024-01-30T03:19:16;28.52;;;25.30;;
53309;SDS011;39197;53.200;5.792;2024-01-30T03:21:41;28.88;;;23.77;;
53309;SDS011;39197;53.200;5.792;2024-01-30T03:24:07;27.38;;;23.05;;
53309;SDS011;39197;53.200;5.792;2024-01-30T03:26:34;29.52;;;23.50;;
53309;SDS011;39197;53.200;5.792;2024-01-30T03:28:59;27.15;;;21.10;;
53309;SDS011;39197;53.200;5.792;2024-01-30T03:31:25;27.42;;;22.08;;
53309;SDS011;39197;53.200;5.792;2024-01-30T03:33:50;27.70;;;23.67;;
53309;SDS011;39197;53.200;5.792;2024-01-30T03:36:16;29.88;;;23.27;;
53309;SDS011;39197;53.200;5.792;2024-01-30T03:38:41;26.50;;;21.25;;
53309;SDS011;39197;53.200;5.792;2024-01-30T03:41:07;27.00;;;20.83;;
53309;SDS011;39197;53.200;5.792;2024-01-30T03:43:34;26.45;;;22.23;;
53309;SDS011;39197;53.200;5.792;2024-01-30T03:46:00;29.98;;;22.85;;
53309;SDS011;39197;53.200;5.792;2024-01-30T03:48:27;27.95;;;21.08;;
53309;SDS011;39197;53.200;5.792;2024-01-30T03:50:53;27.55;;;21.33;;
53309;SDS011;39197;53.200;5.792;2024-01-30T03:53:19;28.35;;;20.80;;
53309;SDS011;39197;53.200;5.792;2024-01-30T03:55:44;28.88;;;22.75;;
53309;SDS011;39197;53.200;5.792;2024-01-30T03:58:10;27.33;;;22.00;;
53309;SDS011;39197;53.200;5.792;2024-01-30T04:00:36;15.93;;;12.52;;
53309;SDS011;39197;53.200;5.792;2024-01-30T04:03:01;21.70;;;17.98;;
53309;SDS011;39197;53.200;5.792;2024-01-30T04:05:27;26.67;;;20.90;;
53309;SDS011;39197;53.200;5.792;2024-01-30T04:07:53;26.85;;;20.60;;
53309;SDS011;39197;53.200;5.792;2024-01-30T04:10:18;26.17;;;22.63;;
53309;SDS011;39197;53.200;5.792;2024-01-30T04:12:44;24.40;;;20.17;;
53309;SDS011;39197;53.200;5.792;2024-01-30T04:15:10;25.05;;;19.10;;
53309;SDS011;39197;53.200;5.792;2024-01-30T04:17:35;27.83;;;21.42;;
53309;SDS011;39197;53.200;5.792;2024-01-30T04:20:01;23.42;;;20.83;;
53309;SDS011;39197;53.200;5.792;2024-01-30T04:22:27;28.80;;;20.98;;
53309;SDS011;39197;53.200;5.792;2024-01-30T04:24:52;26.17;;;21.27;;
53309;SDS011;39197;53.200;5.792;2024-01-30T04:27:18;26.05;;;20.77;;
53309;SDS011;39197;53.200;5.792;2024-01-30T04:29:43;25.08;;;19.67;;
53309;SDS011;39197;53.200;5.792;2024-01-30T04:32:09;22.88;;;17.85;;
53309;SDS011;39197;53.200;5.792;2024-01-30T04:34:36;23.58;;;19.80;;
53309;SDS011;39197;53.200;5.792;2024-01-30T04:37:02;20.67;;;15.98;;
53309;SDS011;39197;53.200;5.792;2024-01-30T04:39:28;23.60;;;21.00;;
53309;SDS011;39197;53.200;5.792;2024-01-30T04:41:53;26.02;;;21.48;;
53309;SDS011;39197;53.200;5.792;2024-01-30T04:44:19;25.02;;;19.40;;
53309;SDS011;39197;53.200;5.792;2024-01-30T04:46:45;24.65;;;18.45;;
53309;SDS011;39197;53.200;5.792;2024-01-30T04:49:10;22.50;;;20.02;;
53309;SDS011;39197;53.200;5.792;2024-01-30T04:51:36;17.80;;;15.32;;
53309;SDS011;39197;53.200;5.792;2024-01-30T04:54:01;21.52;;;18.15;;
53309;SDS011;39197;53.200;5.792;2024-01-30T04:56:27;23.52;;;19.02;;
53309;SDS011;39197;53.200;5.792;2024-01-30T04:58:53;20.88;;;17.95;;
53309;SDS011;39197;53.200;5.792;2024-01-30T05:01:18;23.15;;;16.83;;
53309;SDS011;39197;53.200;5.792;2024-01-30T05:03:44;24.10;;;18.73;;
53309;SDS011;39197;53.200;5.792;2024-01-30T05:06:10;23.25;;;19.25;;
53309;SDS011;39197;53.200;5.792;2024-01-30T05:08:35;21.55;;;17.77;;
53309;SDS011;39197;53.200;5.792;2024-01-30T05:11:05;23.63;;;18.00;;
53309;SDS011;39197;53.200;5.792;2024-01-30T05:13:31;21.90;;;18.27;;
53309;SDS011;39197;53.200;5.792;2024-01-30T05:15:57;22.70;;;19.02;;
53309;SDS011;39197;53.200;5.792;2024-01-30T05:18:22;20.92;;;18.13;;
53309;SDS011;39197;53.200;5.792;2024-01-30T05:20:49;22.42;;;17.75;;
53309;SDS011;39197;53.200;5.792;2024-01-30T05:23:15;21.45;;;18.23;;
53309;SDS011;39197;53.200;5.792;2024-01-30T05:25:41;25.25;;;18.02;;
53309;SDS011;39197;53.200;5.792;2024-01-30T05:28:07;23.38;;;18.65;;
53309;SDS011;39197;53.200;5.792;2024-01-30T05:30:32;17.75;;;13.43;;
53309;SDS011;39197;53.200;5.792;2024-01-30T05:32:58;26.27;;;18.50;;
53309;SDS011;39197;53.200;5.792;2024-01-30T05:35:23;22.50;;;17.40;;
53309;SDS011;39197;53.200;5.792;2024-01-30T05:37:49;23.70;;;17.10;;
53309;SDS011;39197;53.200;5.792;2024-01-30T05:40:15;19.73;;;14.25;;
53309;SDS011;39197;53.200;5.792;2024-01-30T05:42:41;21.83;;;17.45;;
53309;SDS011;39197;53.200;5.792;2024-01-30T05:45:06;19.58;;;16.17;;
53309;SDS011;39197;53.200;5.792;2024-01-30T05:47:33;22.90;;;16.92;;
53309;SDS011;39197;53.200;5.792;2024-01-30T05:49:59;19.15;;;17.05;;
53309;SDS011;39197;53.200;5.792;2024-01-30T05:52:24;20.30;;;16.48;;
53309;SDS011;39197;53.200;5.792;2024-01-30T05:54:50;22.75;;;16.85;;
53309;SDS011;39197;53.200;5.792;2024-01-30T05:57:16;17.63;;;15.80;;
53309;SDS011;39197;53.200;5.792;2024-01-30T05:59:42;21.95;;;16.10;;
53309;SDS011;39197;53.200;5.792;2024-01-30T06:02:10;21.15;;;16.92;;
53309;SDS011;39197;53.200;5.792;2024-01-30T06:04:36;20.08;;;17.95;;
53309;SDS011;39197;53.200;5.792;2024-01-30T06:07:02;23.50;;;16.48;;
53309;SDS011;39197;53.200;5.792;2024-01-30T06:09:27;18.80;;;15.32;;
53309;SDS011;39197;53.200;5.792;2024-01-30T06:11:54;21.55;;;17.27;;
53309;SDS011;39197;53.200;5.792;2024-01-30T06:14:20;21.88;;;15.98;;
53309;SDS011;39197;53.200;5.792;2024-01-30T06:16:45;20.58;;;16.55;;
53309;SDS011;39197;53.200;5.792;2024-01-30T06:19:11;17.60;;;15.40;;
53309;SDS011;39197;53.200;5.792;2024-01-30T06:21:37;18.48;;;15.38;;
53309;SDS011;39197;53.200;5.792;2024-01-30T06:24:03;17.05;;;15.25;;
53309;SDS011;39197;53.200;5.792;2024-01-30T06:26:29;18.13;;;13.45;;
53309;SDS011;39197;53.200;5.792;2024-01-30T06:28:55;18.55;;;15.25;;
53309;SDS011;39197;53.200;5.792;2024-01-30T06:31:20;20.23;;;15.55;;
53309;SDS011;39197;53.200;5.792;2024-01-30T06:33:46;22.95;;;16.45;;
53309;SDS011;39197;53.200;5.792;2024-01-30T06:36:12;18.85;;;15.65;;
53309;SDS011;39197;53.200;5.792;2024-01-30T06:38:38;18.33;;;16.40;;
53309;SDS011;39197;53.200;5.792;2024-01-30T06:41:03;19.33;;;16.27;;
53309;SDS011;39197;53.200;5.792;2024-01-30T06:43:29;18.42;;;14.95;;
53309;SDS011;39197;53.200;5.792;2024-01-30T06:45:54;16.83;;;14.88;;
53309;SDS011;39197;53.200;5.792;2024-01-30T06:48:20;20.75;;;15.95;;
53309;SDS011;39197;53.200;5.792;2024-01-30T06:50:45;18.65;;;15.20;;
53309;SDS011;39197;53.200;5.792;2024-01-30T06:53:12;22.10;;;15.23;;
53309;SDS011;39197;53.200;5.792;2024-01-30T06:55:38;21.17;;;15.68;;
53309;SDS011;39197;53.200;5.792;2024-01-30T06:58:04;20.27;;;15.30;;
53309;SDS011;39197;53.200;5.792;2024-01-30T07:00:29;16.50;;;13.23;;
53309;SDS011;39197;53.200;5.792;2024-01-30T07:02:55;21.25;;;17.30;;
53309;SDS011;39197;53.200;5.792;2024-01-30T07:05:21;21.55;;;17.10;;
53309;SDS011;39197;53.200;5.792;2024-01-30T07:07:47;22.55;;;16.05;;
53309;SDS011;39197;53.200;5.792;2024-01-30T07:10:12;25.77;;;17.75;;
53309;SDS011;39197;53.200;5.792;2024-01-30T07:12:38;20.75;;;16.83;;
53309;SDS011;39197;53.200;5.792;2024-01-30T07:15:04;21.27;;;17.25;;
53309;SDS011;39197;53.200;5.792;2024-01-30T07:17:33;21.40;;;16.52;;
53309;SDS011;39197;53.200;5.792;2024-01-30T07:19:59;22.38;;;17.08;;
53309;SDS011;39197;53.200;5.792;2024-01-30T07:22:24;16.77;;;14.48;;
53309;SDS011;39197;53.200;5.792;2024-01-30T07:24:50;17.40;;;14.48;;
53309;SDS011;39197;53.200;5.792;2024-01-30T07:27:17;19.10;;;15.45;;
53309;SDS011;39197;53.200;5.792;2024-01-30T07:29:43;17.17;;;13.23;;
53309;SDS011;39197;53.200;5.792;2024-01-30T07:32:10;17.90;;;12.35;;
53309;SDS011;39197;53.200;5.792;2024-01-30T07:34:35;18.27;;;14.95;;
53309;SDS011;39197;53.200;5.792;2024-01-30T07:37:01;20.65;;;16.52;;
53309;SDS011;39197;53.200;5.792;2024-01-30T07:39:27;16.17;;;14.05;;
53309;SDS011;39197;53.200;5.792;2024-01-30T07:41:53;17.25;;;14.32;;
53309;SDS011;39197;53.200;5.792;2024-01-30T07:44:19;18.65;;;15.55;;
53309;SDS011;39197;53.200;5.792;2024-01-30T07:46:45;20.50;;;15.82;;
53309;SDS011;39197;53.200;5.792;2024-01-30T07:49:10;18.08;;;15.52;;
53309;SDS011;39197;53.200;5.792;2024-01-30T07:51:36;20.15;;;15.95;;
53309;SDS011;39197;53.200;5.792;2024-01-30T07:54:02;21.10;;;14.52;;
53309;SDS011;39197;53.200;5.792;2024-01-30T07:56:27;19.90;;;15.70;;
53309;SDS011;39197;53.200;5.792;2024-01-30T07:58:53;20.30;;;16.30;;
53309;SDS011;39197;53.200;5.792;2024-01-30T08:01:19;24.80;;;14.10;;
53309;SDS011;39197;53.200;5.792;2024-01-30T08:03:44;20.30;;;15.55;;
53309;SDS011;39197;53.200;5.792;2024-01-30T08:06:10;17.33;;;12.18;;
53309;SDS011;39197;53.200;5.792;2024-01-30T08:08:36;17.13;;;11.52;;
53309;SDS011;39197;53.200;5.792;2024-01-30T08:11:02;17.80;;;13.98;;
53309;SDS011;39197;53.200;5.792;2024-01-30T08:13:28;17.75;;;12.43;;
53309;SDS011;39197;53.200;5.792;2024-01-30T08:15:54;14.73;;;9.25;;
53309;SDS011;39197;53.200;5.792;2024-01-30T08:18:19;20.25;;;13.25;;
53309;SDS011;39197;53.200;5.792;2024-01-30T08:20:45;16.80;;;12.35;;
53309;SDS011;39197;53.200;5.792;2024-01-30T08:23:11;19.17;;;12.80;;
53309;SDS011;39197;53.200;5.792;2024-01-30T08:25:36;20.20;;;11.25;;
53309;SDS011;39197;53.200;5.792;2024-01-30T08:28:02;14.00;;;9.77;;
53309;SDS011;39197;53.200;5.792;2024-01-30T08:30:29;22.92;;;13.00;;
53309;SDS011;39197;53.200;5.792;2024-01-30T08:32:54;13.57;;;11.30;;
53309;SDS011;39197;53.200;5.792;2024-01-30T08:35:20;17.75;;;12.40;;
53309;SDS011;39197;53.200;5.792;2024-01-30T08:37:46;18.08;;;11.43;;
53309;SDS011;39197;53.200;5.792;2024-01-30T08:40:11;14.18;;;7.55;;
53309;SDS011;39197;53.200;5.792;2024-01-30T08:42:37;17.67;;;10.50;;
53309;SDS011;39197;53.200;5.792;2024-01-30T08:45:04;14.00;;;10.45;;
53309;SDS011;39197;53.200;5.792;2024-01-30T08:47:30;15.40;;;10.18;;
53309;SDS011;39197;53.200;5.792;2024-01-30T08:49:56;12.85;;;8.52;;
53309;SDS011;39197;53.200;5.792;2024-01-30T08:52:21;17.42;;;8.50;;
53309;SDS011;39197;53.200;5.792;2024-01-30T08:54:47;9.77;;;6.35;;
53309;SDS011;39197;53.200;5.792;2024-01-30T08:57:12;12.05;;;8.82;;
53309;SDS011;39197;53.200;5.792;2024-01-30T08:59:38;10.75;;;7.68;;
53309;SDS011;39197;53.200;5.792;2024-01-30T09:02:04;17.35;;;11.32;;
53309;SDS011;39197;53.200;5.792;2024-01-30T09:04:30;17.10;;;10.05;;
53309;SDS011;39197;53.200;5.792;2024-01-30T09:06:55;19.25;;;11.60;;
53309;SDS011;39197;53.200;5.792;2024-01-30T09:09:21;10.88;;;7.35;;
53309;SDS011;39197;53.200;5.792;2024-01-30T09:11:47;17.00;;;11.48;;
53309;SDS011;39197;53.200;5.792;2024-01-30T09:14:12;12.32;;;7.22;;
53309;SDS011;39197;53.200;5.792;2024-01-30T09:16:38;19.02;;;12.65;;
53309;SDS011;39197;53.200;5.792;2024-01-30T09:19:04;15.30;;;8.05;;
53309;SDS011;39197;53.200;5.792;2024-01-30T09:21:29;11.70;;;7.70;;
53309;SDS011;39197;53.200;5.792;2024-01-30T09:23:55;18.08;;;9.95;;
53309;SDS011;39197;53.200;5.792;2024-01-30T09:26:28;15.38;;;8.05;;
53309;SDS011;39197;53.200;5.792;2024-01-30T09:28:53;19.25;;;12.25;;
53309;SDS011;39197;53.200;5.792;2024-01-30T09:31:19;15.98;;;11.65;;
53309;SDS011;39197;53.200;5.792;2024-01-30T09:33:44;13.38;;;8.23;;
53309;SDS011;39197;53.200;5.792;2024-01-30T09:36:12;14.88;;;10.85;;
53309;SDS011;39197;53.200;5.792;2024-01-30T09:38:40;16.85;;;10.75;;
53309;SDS011;39197;53.200;5.792;2024-01-30T09:41:06;19.40;;;11.40;;
53309;SDS011;39197;53.200;5.792;2024-01-30T09:43:34;21.35;;;13.95;;
53309;SDS011;39197;53.200;5.792;2024-01-30T09:46:00;14.13;;;9.18;;
53309;SDS011;39197;53.200;5.792;2024-01-30T09:48:29;20.48;;;11.25;;
53309;SDS011;39197;53.200;5.792;2024-01-30T09:50:56;12.88;;;7.85;;
53309;SDS011;39197;53.200;5.792;2024-01-30T09:53:22;17.33;;;9.93;;
53309;SDS011;39197;53.200;5.792;2024-01-30T09:55:50;16.40;;;10.18;;
53309;SDS011;39197;53.200;5.792;2024-01-30T09:58:16;16.13;;;10.23;;
53309;SDS011;39197;53.200;5.792;2024-01-30T10:00:42;13.82;;;7.25;;
53309;SDS011;39197;53.200;5.792;2024-01-30T10:03:07;15.30;;;7.97;;
53309;SDS011;39197;53.200;5.792;2024-01-30T10:05:34;10.25;;;5.72;;
53309;SDS011;39197;53.200;5.792;2024-01-30T10:08:05;16.70;;;8.43;;
53309;SDS011;39197;53.200;5.792;2024-01-30T10:10:33;13.88;;;7.72;;
53309;SDS011;39197;53.200;5.792;2024-01-30T10:13:00;7.97;;;3.80;;
53309;SDS011;39197;53.200;5.792;2024-01-30T10:15:25;16.02;;;9.05;;
53309;SDS011;39197;53.200;5.792;2024-01-30T10:17:53;16.10;;;7.85;;
53309;SDS011;39197;53.200;5.792;2024-01-30T10:20:19;15.57;;;6.55;;
53309;SDS011;39197;53.200;5.792;2024-01-30T10:22:47;11.75;;;5.93;;
53309;SDS011;39197;53.200;5.792;2024-01-30T10:25:14;5.00;;;1.90;;
53309;SDS011;39197;53.200;5.792;2024-01-30T10:27:40;10.52;;;4.70;;
53309;SDS011;39197;53.200;5.792;2024-01-30T10:30:06;11.10;;;4.38;;
53309;SDS011;39197;53.200;5.792;2024-01-30T10:32:33;17.08;;;5.38;;
53309;SDS011;39197;53.200;5.792;2024-01-30T10:34:58;6.72;;;2.80;;
53309;SDS011;39197;53.200;5.792;2024-01-30T10:37:25;18.95;;;5.47;;
53309;SDS011;39197;53.200;5.792;2024-01-30T10:39:51;9.88;;;2.60;;
53309;SDS011;39197;53.200;5.792;2024-01-30T10:42:20;18.92;;;3.45;;
53309;SDS011;39197;53.200;5.792;2024-01-30T10:47:29;21.52;;;5.35;;
53309;SDS011;39197;53.200;5.792;2024-01-30T10:49:55;24.20;;;5.47;;
53309;SDS011;39197;53.200;5.792;2024-01-30T10:52:22;12.60;;;3.55;;
53309;SDS011;39197;53.200;5.792;2024-01-30T10:54:53;11.68;;;2.83;;
53309;SDS011;39197;53.200;5.792;2024-01-30T10:57:19;11.30;;;2.80;;
53309;SDS011;39197;53.200;5.792;2024-01-30T10:59:48;12.73;;;3.25;;
53309;SDS011;39197;53.200;5.792;2024-01-30T11:02:16;8.48;;;1.52;;
53309;SDS011;39197;53.200;5.792;2024-01-30T11:04:42;8.35;;;1.40;;
53309;SDS011;39197;53.200;5.792;2024-01-30T11:07:16;11.32;;;1.25;;
53309;SDS011;39197;53.200;5.792;2024-01-30T11:09:52;6.72;;;1.23;;
53309;SDS011;39197;53.200;5.792;2024-01-30T11:12:22;9.43;;;1.10;;
53309;SDS011;39197;53.200;5.792;2024-01-30T11:14:50;7.38;;;0.60;;
53309;SDS011;39197;53.200;5.792;2024-01-30T11:17:39;7.15;;;1.55;;
53309;SDS011;39197;53.200;5.792;2024-01-30T11:20:14;6.93;;;1.23;;
53309;SDS011;39197;53.200;5.792;2024-01-30T11:22:40;4.53;;;1.23;;
53309;SDS011;39197;53.200;5.792;2024-01-30T11:25:10;6.60;;;1.58;;
53309;SDS011;39197;53.200;5.792;2024-01-30T11:27:37;10.32;;;1.40;;
53309;SDS011;39197;53.200;5.792;2024-01-30T11:30:03;4.00;;;0.77;;
53309;SDS011;39197;53.200;5.792;2024-01-30T11:32:30;3.60;;;0.75;;
53309;SDS011;39197;53.200;5.792;2024-01-30T11:34:55;9.43;;;1.40;;
53309;SDS011;39197;53.200;5.792;2024-01-30T11:37:21;7.20;;;1.02;;
53309;SDS011;39197;53.200;5.792;2024-01-30T11:39:51;8.57;;;1.85;;
53309;SDS011;39197;53.200;5.792;2024-01-30T11:42:19;3.50;;;0.80;;
53309;SDS011;39197;53.200;5.792;2024-01-30T11:44:48;6.70;;;0.95;;
53309;SDS011;39197;53.200;5.792;2024-01-30T11:47:14;8.10;;;1.77;;
53309;SDS011;39197;53.200;5.792;2024-01-30T11:49:40;11.80;;;2.55;;
53309;SDS011;39197;53.200;5.792;2024-01-30T11:52:06;4.50;;;1.25;;
53309;SDS011;39197;53.200;5.792;2024-01-30T11:54:32;8.55;;;1.45;;
53309;SDS011;39197;53.200;5.792;2024-01-30T11:56:58;11.15;;;2.63;;
53309;SDS011;39197;53.200;5.792;2024-01-30T11:59:23;3.08;;;1.30;;
53309;SDS011;39197;53.200;5.792;2024-01-30T12:01:51;9.73;;;1.50;;
53309;SDS011;39197;53.200;5.792;2024-01-30T12:04:17;10.52;;;2.00;;
53309;SDS011;39197;53.200;5.792;2024-01-30T12:06:43;2.40;;;0.88;;
53309;SDS011;39197;53.200;5.792;2024-01-30T12:09:09;9.55;;;1.77;;
53309;SDS011;39197;53.200;5.792;2024-01-30T12:11:47;12.82;;;1.70;;
53309;SDS011;39197;53.200;5.792;2024-01-30T12:14:13;7.32;;;1.50;;
53309;SDS011;39197;53.200;5.792;2024-01-30T12:16:40;5.43;;;0.70;;
53309;SDS011;39197;53.200;5.792;2024-01-30T12:19:06;1.80;;;0.55;;
53309;SDS011;39197;53.200;5.792;2024-01-30T12:21:33;8.43;;;1.38;;
53309;SDS011;39197;53.200;5.792;2024-01-30T12:23:59;8.27;;;0.95;;
53309;SDS011;39197;53.200;5.792;2024-01-30T12:26:25;3.40;;;0.45;;
53309;SDS011;39197;53.200;5.792;2024-01-30T12:28:54;2.60;;;0.73;;
53309;SDS011;39197;53.200;5.792;2024-01-30T12:31:31;9.02;;;1.92;;
53309;SDS011;39197;53.200;5.792;2024-01-30T12:33:59;8.85;;;1.33;;
53309;SDS011;39197;53.200;5.792;2024-01-30T12:36:25;3.30;;;1.10;;
53309;SDS011;39197;53.200;5.792;2024-01-30T12:38:51;8.25;;;1.80;;
53309;SDS011;39197;53.200;5.792;2024-01-30T12:41:17;11.65;;;1.52;;
53309;SDS011;39197;53.200;5.792;2024-01-30T12:43:43;3.08;;;0.80;;
53309;SDS011;39197;53.200;5.792;2024-01-30T12:46:09;6.60;;;1.33;;
53309;SDS011;39197;53.200;5.792;2024-01-30T12:48:34;5.30;;;1.05;;
53309;SDS011;39197;53.200;5.792;2024-01-30T12:51:00;1.00;;;0.10;;
53309;SDS011;39197;53.200;5.792;2024-01-30T12:53:25;5.80;;;1.52;;
53309;SDS011;39197;53.200;5.792;2024-01-30T12:55:51;5.05;;;1.25;;
53309;SDS011;39197;53.200;5.792;2024-01-30T12:58:18;7.60;;;1.00;;
53309;SDS011;39197;53.200;5.792;2024-01-30T13:00:43;5.72;;;1.27;;
53309;SDS011;39197;53.200;5.792;2024-01-30T13:03:10;9.63;;;2.22;;
53309;SDS011;39197;53.200;5.792;2024-01-30T13:05:35;13.73;;;2.00;;
53309;SDS011;39197;53.200;5.792;2024-01-30T13:08:02;4.38;;;0.65;;
53309;SDS011;39197;53.200;5.792;2024-01-30T13:10:27;2.85;;;1.10;;
53309;SDS011;39197;53.200;5.792;2024-01-30T13:12:53;2.92;;;0.80;;
53309;SDS011;39197;53.200;5.792;2024-01-30T13:15:18;6.50;;;1.40;;
53309;SDS011;39197;53.200;5.792;2024-01-30T13:17:44;6.57;;;1.45;;
53309;SDS011;39197;53.200;5.792;2024-01-30T13:20:12;1.67;;;0.88;;
53309;SDS011;39197;53.200;5.792;2024-01-30T13:22:42;4.20;;;1.23;;
53309;SDS011;39197;53.200;5.792;2024-01-30T13:25:08;3.55;;;1.10;;
53309;SDS011;39197;53.200;5.792;2024-01-30T13:27:34;4.35;;;0.80;;
53309;SDS011;39197;53.200;5.792;2024-01-30T13:29:59;2.90;;;1.35;;
53309;SDS011;39197;53.200;5.792;2024-01-30T13:32:25;5.32;;;1.73;;
53309;SDS011;39197;53.200;5.792;2024-01-30T13:34:51;8.02;;;1.75;;
53309;SDS011;39197;53.200;5.792;2024-01-30T13:37:16;4.95;;;1.52;;
53309;SDS011;39197;53.200;5.792;2024-01-30T13:39:42;1.15;;;0.32;;
53309;SDS011;39197;53.200;5.792;2024-01-30T13:42:07;7.25;;;1.88;;
53309;SDS011;39197;53.200;5.792;2024-01-30T13:44:34;6.40;;;2.83;;
53309;SDS011;39197;53.200;5.792;2024-01-30T13:47:00;7.75;;;3.30;;
53309;SDS011;39197;53.200;5.792;2024-01-30T13:49:26;8.50;;;2.40;;
53309;SDS011;39197;53.200;5.792;2024-01-30T13:51:52;11.38;;;3.13;;
53309;SDS011;39197;53.200;5.792;2024-01-30T13:54:17;10.10;;;2.78;;
53309;SDS011;39197;53.200;5.792;2024-01-30T13:56:43;4.93;;;1.27;;
53309;SDS011;39197;53.200;5.792;2024-01-30T13:59:08;4.38;;;0.80;;
53309;SDS011;39197;53.200;5.792;2024-01-30T14:01:34;5.95;;;1.92;;
53309;SDS011;39197;53.200;5.792;2024-01-30T14:04:00;5.45;;;1.55;;
53309;SDS011;39197;53.200;5.792;2024-01-30T14:06:25;10.65;;;2.45;;
53309;SDS011;39197;53.200;5.792;2024-01-30T14:08:51;5.15;;;1.30;;
53309;SDS011;39197;53.200;5.792;2024-01-30T14:11:16;10.45;;;2.42;;
53309;SDS011;39197;53.200;5.792;2024-01-30T14:13:42;4.20;;;0.77;;
53309;SDS011;39197;53.200;5.792;2024-01-30T14:16:07;8.25;;;2.58;;
53309;SDS011;39197;53.200;5.792;2024-01-30T14:18:33;5.90;;;2.13;;
53309;SDS011;39197;53.200;5.792;2024-01-30T14:20:59;2.75;;;0.93;;
53309;SDS011;39197;53.200;5.792;2024-01-30T14:23:24;4.90;;;0.63;;
53309;SDS011;39197;53.200;5.792;2024-01-30T14:25:50;2.30;;;0.40;;